createdAt,value
2022-09-15T00:05:02.695Z,16.96
2022-09-15T00:10:07.716Z,16.59
2022-09-15T00:15:14.888Z,17.87
2022-09-15T00:20:19.983Z,18.71
2022-09-15T00:25:22.814Z,18.57
2022-09-15T00:30:25.807Z,17.06
2022-09-15T00:35:28.721Z,16.72
2022-09-15T00:40:31.648Z,18.05
2022-09-15T00:45:34.573Z,18.83
2022-09-15T00:50:39.760Z,18.53
2022-09-15T00:55:47.480Z,16.94
2022-09-15T01:01:09.312Z,16.58
2022-09-15T01:06:14.404Z,17.86
2022-09-15T01:11:17.889Z,18.56
2022-09-15T01:22:20.024Z,16.61
2022-09-15T01:27:42.692Z,16.33
2022-09-15T01:33:04.344Z,17.61
2022-09-15T01:38:32.455Z,18.30
2022-09-15T01:43:42.938Z,18.73
2022-09-15T01:48:46.960Z,18.31
2022-09-15T01:53:52.852Z,16.66
2022-09-15T01:58:55.751Z,16.24
2022-09-15T02:04:09.198Z,17.42
2022-09-15T02:09:27.156Z,18.22
2022-09-15T02:14:56.129Z,18.05
2022-09-15T02:20:16.790Z,16.50
2022-09-15T02:25:30.760Z,16.44
2022-09-15T02:30:37.993Z,17.60
2022-09-15T02:35:42.373Z,18.08
2022-09-15T02:40:45.404Z,18.39
2022-09-15T02:45:49.842Z,18.10
2022-09-15T02:50:52.687Z,16.56
2022-09-15T02:55:55.555Z,16.14
2022-09-15T03:00:58.500Z,17.28
2022-09-15T03:06:17.027Z,17.79
2022-09-15T03:11:23.410Z,18.04
2022-09-15T03:16:27.957Z,18.21
2022-09-15T03:21:30.959Z,17.56
2022-09-15T03:26:33.861Z,16.11
2022-09-15T03:31:36.877Z,15.89
2022-09-15T03:36:39.880Z,17.05
2022-09-15T03:41:42.778Z,17.46
2022-09-15T03:46:45.997Z,17.71
2022-09-15T03:51:48.893Z,17.87
2022-09-15T03:56:52.309Z,18.00
2022-09-15T04:01:55.188Z,18.19
2022-09-15T04:06:58.220Z,18.32
2022-09-15T04:12:01.126Z,18.22
2022-09-15T04:17:04.230Z,16.69
2022-09-15T04:22:07.135Z,15.86
2022-09-15T04:27:10.243Z,16.46
2022-09-15T04:32:13.054Z,16.81
2022-09-15T04:37:15.952Z,17.02
2022-09-15T04:42:21.113Z,17.16
2022-09-15T04:47:24.008Z,17.26
2022-09-15T04:52:26.914Z,17.37
2022-09-15T04:57:29.821Z,17.48
2022-09-15T05:02:33.542Z,17.56
2022-09-15T05:07:36.548Z,17.82
2022-09-15T05:12:39.457Z,18.04
2022-09-15T05:17:42.367Z,18.15
2022-09-15T05:22:46.085Z,18.25
2022-09-15T05:27:48.881Z,18.49
2022-09-15T05:32:53.597Z,18.59
2022-09-15T05:37:57.247Z,18.65
2022-09-15T05:43:00.151Z,18.69
2022-09-15T05:48:04.143Z,17.63
2022-09-15T05:53:07.676Z,18.13
2022-09-15T05:58:11.123Z,19.48
2022-09-15T06:03:15.556Z,22.36
2022-09-15T06:08:18.462Z,24.46
2022-09-15T06:13:21.362Z,26.17
2022-09-15T06:18:24.265Z,27.66
2022-09-15T06:23:27.178Z,28.88
2022-09-15T06:28:29.955Z,29.85
2022-09-15T06:33:32.875Z,30.54
2022-09-15T06:38:35.678Z,30.41
2022-09-15T06:43:39.317Z,30.77
2022-09-15T06:48:45.249Z,31.54
2022-09-15T06:53:51.681Z,31.98
2022-09-15T06:58:58.032Z,30.89
2022-09-15T07:04:09.989Z,31.45
2022-09-15T07:09:13.580Z,32.50
2022-09-15T07:14:16.381Z,33.13
2022-09-15T07:19:19.594Z,33.20
2022-09-15T07:24:22.395Z,32.53
2022-09-15T07:29:25.402Z,32.20
2022-09-15T07:34:29.635Z,32.27
2022-09-15T07:39:33.364Z,32.63
2022-09-15T07:44:36.470Z,32.87
2022-09-15T07:49:39.476Z,33.01
2022-09-15T07:54:42.381Z,32.86
2022-09-15T07:59:45.291Z,32.52
2022-09-15T08:04:49.007Z,32.54
2022-09-15T08:09:52.012Z,32.89
2022-09-15T08:14:54.813Z,33.10
2022-09-15T08:19:57.613Z,32.92
2022-09-15T08:25:00.620Z,32.91
2022-09-15T08:30:05.039Z,32.96
2022-09-15T08:35:11.551Z,31.07
2022-09-15T08:40:22.486Z,28.69
2022-09-15T08:45:34.047Z,27.06
2022-09-15T08:50:47.805Z,25.82
2022-09-15T08:55:54.271Z,24.81
2022-09-15T09:01:29.722Z,24.05
2022-09-15T09:06:51.508Z,23.31
2022-09-15T09:12:15.819Z,23.13
2022-09-15T09:17:57.936Z,23.35
2022-09-15T09:23:04.118Z,23.47
2022-09-15T09:28:20.435Z,23.24
2022-09-15T09:33:47.935Z,22.83
2022-09-15T09:38:51.438Z,22.92
2022-09-15T09:43:56.671Z,22.95
2022-09-15T09:49:10.802Z,22.65
2022-09-15T09:54:23.083Z,21.85
2022-09-15T09:59:34.694Z,21.38
2022-09-15T10:04:43.203Z,21.23
2022-09-15T10:09:58.423Z,20.87
2022-09-15T10:15:07.773Z,20.44
2022-09-15T10:20:35.721Z,20.45
2022-09-15T10:31:04.018Z,20.40
2022-09-15T10:36:24.518Z,20.01
2022-09-15T10:41:35.205Z,19.75
2022-09-15T10:46:59.583Z,19.50
2022-09-15T10:52:18.299Z,19.22
2022-09-15T10:58:02.457Z,19.04
2022-09-15T11:03:26.253Z,19.08
2022-09-15T11:08:47.895Z,19.75
2022-09-15T11:14:07.491Z,20.27
2022-09-15T11:19:32.000Z,20.15
2022-09-15T11:24:48.524Z,19.86
2022-09-15T11:30:09.558Z,19.74
2022-09-15T11:35:35.407Z,20.07
2022-09-15T11:41:03.490Z,20.25
2022-09-15T11:46:11.975Z,20.22
2022-09-15T11:51:20.672Z,20.24
2022-09-15T11:56:37.097Z,20.40
2022-09-15T12:01:46.085Z,20.63
2022-09-15T12:06:55.436Z,20.95
2022-09-15T12:12:06.076Z,21.13
2022-09-15T12:17:18.684Z,21.10
2022-09-15T12:23:04.590Z,20.88
2022-09-15T12:28:22.574Z,20.85
2022-09-15T12:33:56.894Z,20.87
2022-09-15T12:39:01.011Z,21.03
2022-09-15T12:44:21.977Z,21.39
2022-09-15T12:49:35.630Z,21.55
2022-09-15T12:54:42.786Z,21.58
2022-09-15T12:59:45.944Z,21.41
2022-09-15T13:04:54.495Z,21.29
2022-09-15T13:10:16.857Z,21.23
2022-09-15T13:15:22.513Z,21.09
2022-09-15T13:20:33.608Z,20.91
2022-09-15T13:25:40.782Z,20.74
2022-09-15T13:31:14.796Z,20.81
2022-09-15T13:42:32.644Z,20.50
2022-09-15T13:47:47.027Z,20.62
2022-09-15T13:53:11.431Z,20.71
2022-09-15T14:03:45.657Z,20.46
2022-09-15T14:08:56.484Z,20.31
2022-09-15T14:14:03.416Z,20.11
2022-09-15T14:19:40.075Z,20.04
2022-09-15T14:24:43.279Z,19.96
2022-09-15T14:29:50.341Z,19.53
2022-09-15T14:34:55.349Z,18.95
2022-09-15T14:40:00.656Z,18.40
2022-09-15T14:50:42.118Z,17.42
2022-09-15T14:55:57.239Z,17.18
2022-09-15T15:01:30.450Z,17.02
2022-09-15T15:06:51.648Z,16.96
2022-09-15T15:12:00.745Z,16.95
2022-09-15T15:17:08.689Z,16.79
2022-09-15T15:22:14.439Z,16.52
2022-09-15T15:27:32.591Z,16.27
2022-09-15T15:32:35.596Z,16.11
2022-09-15T15:37:38.501Z,16.05
2022-09-15T15:43:02.347Z,16.02
2022-09-15T15:48:06.718Z,15.99
2022-09-15T15:53:09.656Z,15.91
2022-09-15T15:58:13.671Z,15.76
2022-09-15T16:03:18.086Z,15.64
2022-09-15T16:08:24.463Z,15.53
2022-09-15T16:13:28.593Z,15.44
2022-09-15T16:18:31.534Z,15.33
2022-09-15T16:23:34.541Z,15.19
2022-09-15T16:28:37.956Z,15.06
2022-09-15T16:33:42.606Z,14.96
2022-09-15T16:38:45.790Z,14.88
2022-09-15T16:43:49.397Z,14.82
2022-09-15T16:48:52.256Z,14.78
2022-09-15T16:53:55.149Z,14.73
2022-09-15T16:59:00.416Z,14.62
2022-09-15T17:04:09.204Z,14.47
2022-09-15T17:09:12.261Z,14.23
2022-09-15T17:14:18.721Z,14.00
2022-09-15T17:19:24.191Z,13.84
2022-09-15T17:24:27.410Z,13.78
2022-09-15T17:29:30.245Z,13.76
2022-09-15T17:34:33.117Z,13.73
2022-09-15T17:39:36.231Z,13.68
2022-09-15T17:44:39.231Z,13.56
2022-09-15T17:49:42.136Z,13.37
2022-09-15T17:54:45.039Z,13.57
2022-09-15T17:59:47.955Z,14.79
2022-09-15T18:04:51.047Z,14.24
2022-09-15T18:09:55.180Z,13.49
2022-09-15T18:14:58.290Z,13.00
2022-09-15T18:20:01.603Z,13.13
2022-09-15T18:25:05.176Z,14.45
2022-09-15T18:30:09.114Z,14.62
2022-09-15T18:35:18.324Z,13.55
2022-09-15T18:40:22.459Z,12.83
2022-09-15T18:45:26.296Z,12.81
2022-09-15T18:50:29.257Z,13.93
2022-09-15T18:55:32.762Z,14.66
2022-09-15T19:00:36.795Z,15.09
2022-09-15T19:05:40.235Z,14.59
2022-09-15T19:10:44.481Z,13.27
2022-09-15T19:15:49.229Z,12.43
2022-09-15T19:20:54.373Z,12.64
2022-09-15T19:25:57.276Z,13.64
2022-09-15T19:31:04.061Z,14.35
2022-09-15T19:36:27.296Z,14.16
2022-09-15T19:41:32.246Z,12.77
2022-09-15T19:46:35.116Z,12.51
2022-09-15T19:51:38.459Z,13.55
2022-09-15T19:56:41.323Z,14.27
2022-09-15T20:01:44.642Z,14.58
2022-09-15T20:06:48.051Z,13.44
2022-09-15T20:11:51.062Z,12.83
2022-09-15T20:16:56.214Z,13.92
2022-09-15T20:22:01.987Z,14.41
2022-09-15T20:27:05.107Z,13.11
2022-09-15T20:32:08.105Z,12.65
2022-09-15T20:37:11.937Z,13.68
2022-09-15T20:42:14.938Z,14.33
2022-09-15T20:47:17.954Z,14.28
2022-09-15T20:52:20.845Z,14.11
2022-09-15T20:57:24.064Z,13.31
2022-09-15T21:02:27.081Z,14.11
2022-09-15T21:07:30.071Z,13.64
2022-09-15T21:12:34.202Z,12.86
2022-09-15T21:17:37.220Z,13.84
2022-09-15T21:22:41.241Z,14.38
2022-09-15T21:27:46.409Z,14.24
2022-09-15T21:32:49.301Z,12.71
2022-09-15T21:37:52.105Z,12.17
2022-09-15T21:42:55.127Z,13.16
2022-09-15T21:47:58.014Z,13.86
2022-09-15T21:53:00.813Z,14.23
2022-09-15T21:58:03.717Z,13.44
2022-09-15T22:03:07.115Z,12.64
2022-09-15T22:08:11.369Z,13.49
2022-09-15T22:13:14.273Z,13.98
2022-09-15T22:18:17.986Z,14.29
2022-09-15T22:23:21.106Z,14.40
2022-09-15T22:28:23.996Z,13.17
2022-09-15T22:33:27.122Z,12.92
2022-09-15T22:38:30.736Z,13.88
2022-09-15T22:43:33.846Z,14.46
2022-09-15T22:48:41.135Z,14.95
2022-09-15T22:53:46.347Z,14.64
2022-09-15T22:58:50.545Z,13.98
2022-09-15T23:03:59.505Z,14.84
2022-09-15T23:09:06.951Z,15.46
2022-09-15T23:14:15.447Z,15.81
2022-09-15T23:19:18.340Z,16.03
2022-09-15T23:24:21.249Z,14.85
2022-09-15T23:29:26.402Z,14.42
2022-09-15T23:34:29.407Z,15.03
2022-09-15T23:39:32.316Z,15.33
2022-09-15T23:44:35.219Z,14.99
2022-09-15T23:49:38.120Z,13.33
2022-09-15T23:54:40.923Z,13.52
2022-09-15T23:59:44.041Z,13.99
